Wednesday, January 14, 2009


Time For A "Toque"........

Self-explanatory! So cold you could "freeze the balls off a brass monkey"!

METAR CYWG 141400Z 30010KT 15SM SKC M36/M40 A3054 RMK VIS E 6 BR SLP380=

Good "Manitoba boys" are still "flying the bush", though, in these temps!

- photo by Jason "Spanky" Henkel

- photo by Jason "Spanky" Henkel (pictured)

Comments: Post a Comment

<< Home